sensor_id;sensor_type;location;lat;lon;timestamp;P1;durP1;ratioP1;P2;durP2;ratioP2
23336;SDS011;11840;45.414;12.372;2022-08-11T06:41:29;4.55;;;2.50;;
23336;SDS011;11840;45.414;12.372;2022-08-11T06:46:34;6.07;;;2.20;;
23336;SDS011;11840;45.414;12.372;2022-08-11T06:49:04;5.40;;;2.45;;
23336;SDS011;11840;45.414;12.372;2022-08-11T06:51:30;9.63;;;2.45;;
23336;SDS011;11840;45.414;12.372;2022-08-11T06:53:59;5.95;;;2.50;;
23336;SDS011;11840;45.414;12.372;2022-08-11T06:56:29;6.57;;;2.20;;
23336;SDS011;11840;45.414;12.372;2022-08-11T06:59:14;5.25;;;2.30;;
23336;SDS011;11840;45.414;12.372;2022-08-11T07:07:32;7.80;;;2.33;;
23336;SDS011;11840;45.414;12.372;2022-08-11T07:13:02;5.85;;;2.05;;
23336;SDS011;11840;45.414;12.372;2022-08-11T07:15:46;5.53;;;1.95;;
23336;SDS011;11840;45.414;12.372;2022-08-11T07:18:23;6.05;;;1.80;;
23336;SDS011;11840;45.414;12.372;2022-08-11T07:21:51;4.25;;;2.20;;
23336;SDS011;11840;45.414;12.372;2022-08-11T07:24:28;5.82;;;2.33;;
23336;SDS011;11840;45.414;12.372;2022-08-11T07:27:14;4.93;;;2.20;;
23336;SDS011;11840;45.414;12.372;2022-08-11T07:30:02;8.93;;;1.90;;
23336;SDS011;11840;45.414;12.372;2022-08-11T07:32:30;4.57;;;1.90;;
23336;SDS011;11840;45.414;12.372;2022-08-11T07:35:02;13.73;;;2.60;;
23336;SDS011;11840;45.414;12.372;2022-08-11T07:37:31;6.40;;;2.40;;
23336;SDS011;11840;45.414;12.372;2022-08-11T07:39:58;9.77;;;2.47;;
23336;SDS011;11840;45.414;12.372;2022-08-11T07:42:29;13.70;;;2.35;;
23336;SDS011;11840;45.414;12.372;2022-08-11T07:44:55;14.35;;;2.95;;
23336;SDS011;11840;45.414;12.372;2022-08-11T07:47:40;9.95;;;2.53;;
23336;SDS011;11840;45.414;12.372;2022-08-11T07:50:26;15.10;;;2.50;;
23336;SDS011;11840;45.414;12.372;2022-08-11T07:53:10;20.73;;;2.15;;
23336;SDS011;11840;45.414;12.372;2022-08-11T07:55:38;23.00;;;3.58;;
23336;SDS011;11840;45.414;12.372;2022-08-11T07:58:04;6.68;;;1.70;;
23336;SDS011;11840;45.414;12.372;2022-08-11T08:00:52;20.27;;;2.88;;
23336;SDS011;11840;45.414;12.372;2022-08-11T08:03:38;18.73;;;2.70;;
23336;SDS011;11840;45.414;12.372;2022-08-11T08:06:22;26.25;;;3.13;;
23336;SDS011;11840;45.414;12.372;2022-08-11T08:09:08;13.75;;;2.35;;
23336;SDS011;11840;45.414;12.372;2022-08-11T08:11:52;6.75;;;2.15;;
23336;SDS011;11840;45.414;12.372;2022-08-11T08:14:37;25.40;;;2.63;;
23336;SDS011;11840;45.414;12.372;2022-08-11T08:17:21;8.40;;;1.73;;
23336;SDS011;11840;45.414;12.372;2022-08-11T08:20:05;9.55;;;1.92;;
23336;SDS011;11840;45.414;12.372;2022-08-11T08:22:35;4.78;;;1.45;;
23336;SDS011;11840;45.414;12.372;2022-08-11T08:25:01;6.20;;;1.40;;
23336;SDS011;11840;45.414;12.372;2022-08-11T08:27:27;9.40;;;2.28;;
23336;SDS011;11840;45.414;12.372;2022-08-11T08:29:53;3.10;;;1.75;;
23336;SDS011;11840;45.414;12.372;2022-08-11T08:32:39;5.05;;;1.63;;
23336;SDS011;11840;45.414;12.372;2022-08-11T08:35:06;3.72;;;1.60;;
23336;SDS011;11840;45.414;12.372;2022-08-11T08:37:34;26.02;;;3.25;;
23336;SDS011;11840;45.414;12.372;2022-08-11T08:40:00;23.25;;;3.58;;
23336;SDS011;11840;45.414;12.372;2022-08-11T08:42:27;64.35;;;7.85;;
23336;SDS011;11840;45.414;12.372;2022-08-11T08:45:04;87.75;;;9.07;;
23336;SDS011;11840;45.414;12.372;2022-08-11T08:47:30;70.85;;;8.98;;
23336;SDS011;11840;45.414;12.372;2022-08-11T08:50:07;90.07;;;9.50;;
23336;SDS011;11840;45.414;12.372;2022-08-11T08:52:36;72.65;;;8.50;;
23336;SDS011;11840;45.414;12.372;2022-08-11T08:55:06;107.22;;;11.20;;
23336;SDS011;11840;45.414;12.372;2022-08-11T08:57:34;124.20;;;14.25;;
23336;SDS011;11840;45.414;12.372;2022-08-11T09:00:02;85.35;;;11.15;;
23336;SDS011;11840;45.414;12.372;2022-08-11T09:02:29;93.75;;;9.90;;
23336;SDS011;11840;45.414;12.372;2022-08-11T09:04:55;131.88;;;13.77;;
23336;SDS011;11840;45.414;12.372;2022-08-11T09:07:22;98.93;;;12.20;;
23336;SDS011;11840;45.414;12.372;2022-08-11T09:09:49;102.95;;;11.48;;
23336;SDS011;11840;45.414;12.372;2022-08-11T09:12:15;98.50;;;11.45;;
23336;SDS011;11840;45.414;12.372;2022-08-11T09:14:44;122.25;;;12.23;;
23336;SDS011;11840;45.414;12.372;2022-08-11T09:17:49;52.15;;;6.45;;
23336;SDS011;11840;45.414;12.372;2022-08-11T09:20:16;70.97;;;8.30;;
23336;SDS011;11840;45.414;12.372;2022-08-11T09:22:43;101.03;;;10.40;;
23336;SDS011;11840;45.414;12.372;2022-08-11T09:25:29;83.97;;;9.48;;
23336;SDS011;11840;45.414;12.372;2022-08-11T09:28:15;112.85;;;11.90;;
23336;SDS011;11840;45.414;12.372;2022-08-11T09:30:46;89.72;;;10.70;;
23336;SDS011;11840;45.414;12.372;2022-08-11T09:33:13;63.13;;;6.97;;
23336;SDS011;11840;45.414;12.372;2022-08-11T09:35:40;57.10;;;8.65;;
23336;SDS011;11840;45.414;12.372;2022-08-11T09:38:13;61.13;;;6.55;;
23336;SDS011;11840;45.414;12.372;2022-08-11T18:52:15;4.97;;;1.40;;
23336;SDS011;11840;45.414;12.372;2022-08-11T18:55:01;5.65;;;1.75;;
23336;SDS011;11840;45.414;12.372;2022-08-11T18:57:47;3.53;;;1.33;;
23336;SDS011;11840;45.414;12.372;2022-08-11T19:00:33;3.65;;;1.17;;
23336;SDS011;11840;45.414;12.372;2022-08-11T19:03:19;4.72;;;1.30;;
23336;SDS011;11840;45.414;12.372;2022-08-11T19:06:05;1.83;;;1.17;;
23336;SDS011;11840;45.414;12.372;2022-08-11T19:08:56;2.20;;;1.30;;
23336;SDS011;11840;45.414;12.372;2022-08-11T19:11:42;3.08;;;1.02;;
23336;SDS011;11840;45.414;12.372;2022-08-11T19:14:28;5.68;;;1.33;;
23336;SDS011;11840;45.414;12.372;2022-08-11T19:17:13;4.15;;;1.30;;
23336;SDS011;11840;45.414;12.372;2022-08-11T19:19:58;2.97;;;1.58;;
23336;SDS011;11840;45.414;12.372;2022-08-11T19:22:43;4.30;;;1.60;;
23336;SDS011;11840;45.414;12.372;2022-08-11T19:25:29;2.67;;;1.27;;
23336;SDS011;11840;45.414;12.372;2022-08-11T19:28:14;3.88;;;2.17;;
23336;SDS011;11840;45.414;12.372;2022-08-11T19:30:59;2.95;;;2.10;;
23336;SDS011;11840;45.414;12.372;2022-08-11T19:33:44;2.83;;;1.70;;
23336;SDS011;11840;45.414;12.372;2022-08-11T19:36:30;5.43;;;1.83;;
23336;SDS011;11840;45.414;12.372;2022-08-11T19:39:14;2.95;;;1.48;;
23336;SDS011;11840;45.414;12.372;2022-08-11T19:41:59;2.33;;;1.27;;
23336;SDS011;11840;45.414;12.372;2022-08-11T19:44:44;4.45;;;1.48;;
23336;SDS011;11840;45.414;12.372;2022-08-11T19:47:28;3.88;;;1.50;;
23336;SDS011;11840;45.414;12.372;2022-08-11T19:50:14;2.75;;;1.33;;
23336;SDS011;11840;45.414;12.372;2022-08-11T19:52:59;5.75;;;1.60;;
23336;SDS011;11840;45.414;12.372;2022-08-11T19:55:45;3.22;;;1.30;;
23336;SDS011;11840;45.414;12.372;2022-08-11T19:58:30;2.92;;;1.38;;
23336;SDS011;11840;45.414;12.372;2022-08-11T20:01:14;2.42;;;1.30;;
23336;SDS011;11840;45.414;12.372;2022-08-11T20:03:58;4.45;;;1.15;;
23336;SDS011;11840;45.414;12.372;2022-08-11T20:06:42;5.57;;;1.50;;
23336;SDS011;11840;45.414;12.372;2022-08-11T20:09:26;2.35;;;1.45;;
23336;SDS011;11840;45.414;12.372;2022-08-11T20:12:11;3.97;;;1.20;;
23336;SDS011;11840;45.414;12.372;2022-08-11T20:14:56;4.20;;;1.48;;
23336;SDS011;11840;45.414;12.372;2022-08-11T20:17:41;6.35;;;1.52;;
23336;SDS011;11840;45.414;12.372;2022-08-11T20:20:26;3.63;;;1.60;;
23336;SDS011;11840;45.414;12.372;2022-08-11T20:23:12;6.70;;;1.50;;
23336;SDS011;11840;45.414;12.372;2022-08-11T20:25:57;3.55;;;1.30;;
23336;SDS011;11840;45.414;12.372;2022-08-11T20:28:42;4.93;;;1.63;;
23336;SDS011;11840;45.414;12.372;2022-08-11T20:31:27;3.28;;;1.55;;
23336;SDS011;11840;45.414;12.372;2022-08-11T20:34:12;4.20;;;1.50;;
23336;SDS011;11840;45.414;12.372;2022-08-11T20:36:57;2.85;;;1.48;;
23336;SDS011;11840;45.414;12.372;2022-08-11T20:39:43;6.00;;;1.45;;
23336;SDS011;11840;45.414;12.372;2022-08-11T20:42:28;4.72;;;1.52;;
23336;SDS011;11840;45.414;12.372;2022-08-11T20:45:13;3.95;;;1.52;;
23336;SDS011;11840;45.414;12.372;2022-08-11T20:47:58;3.45;;;1.48;;
23336;SDS011;11840;45.414;12.372;2022-08-11T20:50:43;2.67;;;1.33;;
23336;SDS011;11840;45.414;12.372;2022-08-11T20:53:28;3.28;;;1.50;;
23336;SDS011;11840;45.414;12.372;2022-08-11T20:56:13;4.10;;;1.30;;
23336;SDS011;11840;45.414;12.372;2022-08-11T20:58:58;4.65;;;1.50;;
23336;SDS011;11840;45.414;12.372;2022-08-11T21:01:43;4.97;;;1.50;;
23336;SDS011;11840;45.414;12.372;2022-08-11T21:04:28;5.72;;;1.58;;
23336;SDS011;11840;45.414;12.372;2022-08-11T21:07:12;5.47;;;1.90;;
23336;SDS011;11840;45.414;12.372;2022-08-11T21:09:57;3.50;;;1.63;;
23336;SDS011;11840;45.414;12.372;2022-08-11T21:12:41;4.07;;;1.50;;
23336;SDS011;11840;45.414;12.372;2022-08-11T21:15:29;4.18;;;1.58;;
23336;SDS011;11840;45.414;12.372;2022-08-11T21:18:13;4.32;;;1.23;;
23336;SDS011;11840;45.414;12.372;2022-08-11T21:20:59;2.65;;;1.42;;
23336;SDS011;11840;45.414;12.372;2022-08-11T21:23:45;6.82;;;1.55;;
23336;SDS011;11840;45.414;12.372;2022-08-11T21:26:29;4.38;;;1.95;;
23336;SDS011;11840;45.414;12.372;2022-08-11T21:29:15;3.00;;;1.50;;
23336;SDS011;11840;45.414;12.372;2022-08-11T21:32:00;5.30;;;1.52;;
23336;SDS011;11840;45.414;12.372;2022-08-11T21:34:45;6.13;;;1.60;;
23336;SDS011;11840;45.414;12.372;2022-08-11T21:37:29;2.70;;;1.60;;
23336;SDS011;11840;45.414;12.372;2022-08-11T21:40:15;7.10;;;1.75;;
23336;SDS011;11840;45.414;12.372;2022-08-11T21:42:59;5.57;;;1.70;;
23336;SDS011;11840;45.414;12.372;2022-08-11T21:45:45;3.97;;;1.77;;
23336;SDS011;11840;45.414;12.372;2022-08-11T21:48:29;5.93;;;1.70;;
23336;SDS011;11840;45.414;12.372;2022-08-11T21:51:14;4.55;;;1.70;;
23336;SDS011;11840;45.414;12.372;2022-08-11T21:53:59;4.85;;;1.80;;
23336;SDS011;11840;45.414;12.372;2022-08-11T21:56:43;5.97;;;1.70;;
23336;SDS011;11840;45.414;12.372;2022-08-11T22:02:25;5.63;;;2.22;;
23336;SDS011;11840;45.414;12.372;2022-08-11T22:05:10;5.38;;;1.77;;
